Time;durP1;ratioP1;P1;durP2;ratioP2;P2;SDS_P1;SDS_P2;PMS_P1;PMS_P2;Temp;Humidity;BMP_temperature;BMP_pressure;BME280_temperature;BME280_humidity;BME280_pressure;Samples;Min_cycle;Max_cycle;Signal;HPM_P1;HPM_P2
2023/04/25 00:00:27;;;;;;;8.97;8.67;;;19.60;59.20;;;;;;5094504;28;20492;-67
2023/04/25 00:02:55;;;;;;;8.50;8.30;;;19.50;59.20;;;;;;5092618;28;20501;-67
2023/04/25 00:05:22;;;;;;;9.30;9.00;;;19.60;59.20;;;;;;5092686;28;20497;-67
2023/04/25 00:07:49;;;;;;;9.20;9.00;;;19.60;59.20;;;;;;5102702;28;20481;-68
2023/04/25 00:10:17;;;;;;;9.20;9.00;;;19.60;59.20;;;;;;5113076;28;20557;-68
2023/04/25 00:12:43;;;;;;;9.70;9.40;;;19.60;59.20;;;;;;5113545;28;20521;-68
2023/04/25 00:15:12;;;;;;;9.40;9.20;;;19.60;59.20;;;;;;5111279;28;20866;-68
2023/04/25 00:17:40;;;;;;;9.47;9.27;;;19.60;59.20;;;;;;5092374;28;20481;-68
2023/04/25 00:20:09;;;;;;;9.67;9.27;;;19.50;59.10;;;;;;5092737;28;20481;-67
2023/04/25 00:22:37;;;;;;;8.87;8.67;;;19.50;59.20;;;;;;5092882;28;20450;-67
2023/04/25 00:25:05;;;;;;;8.90;8.70;;;19.50;59.20;;;;;;5096579;28;20453;-67
2023/04/25 00:27:32;;;;;;;8.90;8.60;;;19.50;59.20;;;;;;5113408;28;20453;-67
2023/04/25 00:29:59;;;;;;;9.10;8.80;;;19.50;59.20;;;;;;5113400;28;20843;-68
2023/04/25 00:32:26;;;;;;;8.60;8.40;;;19.50;59.20;;;;;;5113130;28;20928;-67
2023/04/25 00:34:57;;;;;;;9.40;9.10;;;19.50;59.20;;;;;;5097334;28;20529;-67
2023/04/25 00:37:24;;;;;;;9.17;8.93;;;19.50;59.20;;;;;;5092405;28;20453;-68
2023/04/25 00:39:53;;;;;;;9.60;9.40;;;19.50;59.20;;;;;;5092267;28;20525;-68
2023/04/25 00:42:20;;;;;;;9.33;9.13;;;19.50;59.20;;;;;;5092211;28;20450;-68
2023/04/25 00:44:48;;;;;;;9.30;9.00;;;19.40;59.10;;;;;;5105538;28;20441;-67
2023/04/25 00:47:16;;;;;;;8.80;8.57;;;19.40;59.10;;;;;;5112153;28;20469;-67
2023/04/25 00:49:43;;;;;;;8.90;8.70;;;19.40;59.10;;;;;;5112272;28;20473;-67
2023/04/25 00:52:12;;;;;;;9.40;9.20;;;19.40;59.20;;;;;;5112250;28;20481;-67
2023/04/25 00:54:39;;;;;;;9.17;8.77;;;19.40;59.10;;;;;;5110322;28;20467;-67
2023/04/25 00:57:06;;;;;;;9.07;8.87;;;19.40;59.10;;;;;;5111948;28;20480;-68
2023/04/25 00:59:33;;;;;;;8.60;8.37;;;19.40;59.20;;;;;;5112167;28;20469;-67
2023/04/25 01:02:00;;;;;;;9.20;9.00;;;19.40;59.20;;;;;;5112077;28;20473;-67
2023/04/25 01:04:28;;;;;;;8.97;8.67;;;19.40;59.10;;;;;;5111207;28;20472;-67
2023/04/25 01:06:55;;;;;;;8.90;8.67;;;19.40;59.10;;;;;;5111989;28;20904;-67
2023/04/25 01:09:24;;;;;;;8.50;8.30;;;19.40;59.10;;;;;;5111784;28;20509;-68
2023/04/25 01:11:51;;;;;;;9.67;9.17;;;19.40;59.10;;;;;;5111985;28;20446;-67
2023/04/25 01:14:18;;;;;;;9.30;9.10;;;19.40;59.10;;;;;;5102909;28;20915;-67
2023/04/25 01:16:45;;;;;;;10.07;9.73;;;19.30;59.10;;;;;;5091437;28;20478;-67
2023/04/25 01:19:12;;;;;;;9.00;8.80;;;19.40;59.10;;;;;;5091478;28;20464;-67
2023/04/25 01:21:41;;;;;;;9.83;9.33;;;19.30;59.10;;;;;;5091664;28;20446;-67
2023/04/25 01:24:08;;;;;;;10.03;9.53;;;19.30;59.10;;;;;;5111761;28;20544;-67
2023/04/25 01:26:36;;;;;;;9.23;8.83;;;19.30;59.00;;;;;;5111556;28;20450;-67
2023/04/25 01:29:05;;;;;;;9.20;8.90;;;19.30;59.00;;;;;;5111811;28;20568;-67
2023/04/25 01:31:33;;;;;;;9.63;9.33;;;19.30;58.90;;;;;;5111793;28;20453;-68
2023/04/25 01:34:01;;;;;;;9.80;9.50;;;19.30;58.90;;;;;;5091871;28;20541;-67
2023/04/25 01:36:28;;;;;;;9.10;8.87;;;19.30;58.90;;;;;;5091548;28;20938;-68
2023/04/25 01:38:57;;;;;;;9.10;8.90;;;19.30;58.90;;;;;;5091290;28;20474;-68
2023/04/25 01:41:24;;;;;;;9.27;8.77;;;19.30;58.90;;;;;;5091359;28;20475;-67
2023/04/25 01:43:51;;;;;;;9.30;9.00;;;19.30;58.90;;;;;;5109319;28;21011;-67
2023/04/25 01:46:18;;;;;;;9.03;8.70;;;19.30;58.90;;;;;;5111597;28;20533;-67
2023/04/25 01:48:45;;;;;;;9.10;8.90;;;19.30;58.90;;;;;;5111466;28;20536;-68
2023/04/25 01:51:12;;;;;;;9.60;9.30;;;19.30;58.90;;;;;;5111720;28;20521;-68
2023/04/25 01:53:39;;;;;;;8.93;8.63;;;19.30;58.90;;;;;;5097289;28;21107;-67
2023/04/25 01:56:08;;;;;;;8.90;8.70;;;19.30;58.90;;;;;;5095189;28;20533;-68
2023/04/25 01:58:35;;;;;;;8.40;8.20;;;19.30;58.90;;;;;;5094900;28;20998;-67
2023/04/25 02:01:01;;;;;;;9.03;8.73;;;19.30;58.90;;;;;;5095176;28;20807;-68
2023/04/25 02:03:30;;;;;;;9.37;9.07;;;19.30;58.90;;;;;;5109105;28;20518;-67
2023/04/25 02:05:57;;;;;;;10.20;9.50;;;19.30;58.90;;;;;;5115413;28;20491;-68
2023/04/25 02:08:25;;;;;;;9.40;9.10;;;19.30;58.90;;;;;;5114998;28;20948;-68
2023/04/25 02:10:52;;;;;;;9.50;9.20;;;19.30;58.90;;;;;;5114952;28;20481;-67
2023/04/25 02:13:20;;;;;;;9.10;8.80;;;19.30;58.90;;;;;;5115188;28;20898;-67
2023/04/25 02:15:47;;;;;;;9.10;8.90;;;19.20;58.80;;;;;;5115307;28;20481;-67
2023/04/25 02:18:15;;;;;;;9.10;8.90;;;19.20;58.80;;;;;;5114952;28;20857;-67
2023/04/25 02:20:43;;;;;;;9.27;9.07;;;19.20;58.80;;;;;;5110021;28;20447;-67
2023/04/25 02:23:09;;;;;;;8.90;8.60;;;19.20;58.80;;;;;;5094620;28;20498;-67
2023/04/25 02:25:36;;;;;;;8.93;8.73;;;19.20;58.80;;;;;;5094532;28;20888;-67
2023/04/25 02:28:04;;;;;;;9.10;8.90;;;19.20;58.80;;;;;;5094435;28;20474;-67
2023/04/25 02:30:32;;;;;;;9.00;8.70;;;19.20;58.80;;;;;;5111275;28;20573;-68
2023/04/25 02:32:59;;;;;;;9.00;8.70;;;19.20;58.80;;;;;;5114778;28;20496;-68
2023/04/25 02:35:26;;;;;;;9.77;9.50;;;19.20;58.80;;;;;;5114773;28;20473;-68
2023/04/25 02:37:53;;;;;;;8.87;8.67;;;19.20;58.80;;;;;;5114602;28;20979;-68
2023/04/25 02:40:20;;;;;;;8.93;8.73;;;19.20;58.80;;;;;;5098929;28;20499;-69
2023/04/25 02:42:47;;;;;;;9.80;9.40;;;19.20;58.70;;;;;;5094119;28;20501;-68
2023/04/25 02:45:14;;;;;;;9.00;8.70;;;19.20;58.70;;;;;;5094266;28;20485;-68
2023/04/25 02:47:42;;;;;;;9.63;9.10;;;19.20;58.70;;;;;;5094034;28;20526;-68
2023/04/25 02:50:09;;;;;;;9.27;9.00;;;19.20;58.70;;;;;;5107406;28;20561;-69
2023/04/25 02:52:36;;;;;;;10.20;9.90;;;19.20;58.70;;;;;;5114289;28;20480;-69
2023/04/25 02:55:03;;;;;;;9.13;8.93;;;19.20;58.70;;;;;;5114471;28;20868;-69
2023/04/25 02:57:30;;;;;;;9.03;8.73;;;19.10;58.60;;;;;;5114422;28;20838;-69
2023/04/25 02:59:57;;;;;;;8.73;8.53;;;19.10;58.60;;;;;;5102527;28;20869;-69
2023/04/25 03:02:24;;;;;;;8.17;7.97;;;19.10;58.60;;;;;;5113000;28;20506;-68
2023/04/25 03:04:52;;;;;;;8.70;8.50;;;19.20;58.70;;;;;;5113778;28;20532;-68
2023/04/25 03:07:19;;;;;;;9.50;9.10;;;19.20;58.60;;;;;;5113937;28;20488;-68
2023/04/25 03:09:46;;;;;;;9.20;8.97;;;19.20;58.60;;;;;;5103991;28;20510;-69
2023/04/25 03:12:13;;;;;;;9.50;9.10;;;19.10;58.50;;;;;;5093775;28;20472;-68
2023/04/25 03:14:39;;;;;;;9.07;8.77;;;19.10;58.50;;;;;;5095620;28;20554;-68
2023/04/25 03:17:06;;;;;;;9.10;8.80;;;19.10;58.50;;;;;;5113896;28;20486;-68
2023/04/25 03:19:33;;;;;;;9.60;9.40;;;19.10;58.50;;;;;;5105996;28;20474;-68
2023/04/25 03:22:01;;;;;;;8.90;8.70;;;19.10;58.50;;;;;;5093484;28;20493;-68
2023/04/25 03:24:28;;;;;;;8.60;8.40;;;19.10;58.50;;;;;;5093321;28;20470;-68
2023/04/25 03:26:55;;;;;;;8.83;8.63;;;19.10;58.50;;;;;;5093198;28;20529;-69
2023/04/25 03:29:25;;;;;;;8.83;8.60;;;19.10;58.50;;;;;;5093611;28;20500;-68
2023/04/25 03:31:52;;;;;;;9.83;9.53;;;19.10;58.50;;;;;;5093421;28;20456;-67
2023/04/25 03:34:19;;;;;;;9.57;9.27;;;19.10;58.50;;;;;;5093369;28;20498;-68
2023/04/25 03:36:46;;;;;;;9.00;8.80;;;19.10;58.50;;;;;;5093453;28;20478;-69
2023/04/25 03:39:14;;;;;;;8.50;8.30;;;19.00;58.40;;;;;;5101702;28;20533;-68
2023/04/25 03:41:41;;;;;;;9.63;9.43;;;19.10;58.50;;;;;;5100343;28;20523;-68
2023/04/25 03:44:08;;;;;;;9.67;9.17;;;19.10;58.40;;;;;;5092945;28;20890;-69
2023/04/25 03:46:35;;;;;;;9.30;9.10;;;19.00;58.30;;;;;;5092912;28;20533;-69
2023/04/25 03:49:02;;;;;;;9.40;9.10;;;19.00;58.30;;;;;;5109376;28;20453;-68
2023/04/25 03:51:29;;;;;;;8.33;8.13;;;19.00;58.30;;;;;;5113195;28;20565;-68
2023/04/25 03:53:56;;;;;;;9.97;9.57;;;19.00;58.30;;;;;;5113160;28;20497;-68
2023/04/25 03:56:24;;;;;;;9.60;9.30;;;19.00;58.30;;;;;;5113176;28;20484;-68
2023/04/25 03:58:51;;;;;;;8.97;8.67;;;19.00;58.40;;;;;;5097926;28;20479;-68
2023/04/25 04:01:18;;;;;;;9.10;8.90;;;19.00;58.40;;;;;;5092864;28;20521;-68
2023/04/25 04:03:45;;;;;;;8.70;8.50;;;19.00;58.50;;;;;;5092727;28;20509;-68
2023/04/25 04:06:12;;;;;;;9.30;9.00;;;19.00;58.40;;;;;;5092605;28;20470;-68
2023/04/25 04:08:39;;;;;;;9.77;9.57;;;19.00;58.50;;;;;;5104900;28;20499;-68
2023/04/25 04:11:06;;;;;;;10.07;9.87;;;19.00;58.50;;;;;;5112828;28;20553;-68
2023/04/25 04:13:34;;;;;;;9.17;8.97;;;19.00;58.40;;;;;;5112729;28;21010;-68
2023/04/25 04:16:03;;;;;;;9.93;9.63;;;19.00;58.40;;;;;;5111691;28;20481;-68
2023/04/25 04:18:29;;;;;;;9.80;9.60;;;19.00;58.40;;;;;;5112603;28;20510;-68
2023/04/25 04:20:57;;;;;;;9.67;9.37;;;19.00;58.40;;;;;;5112674;28;20527;-68
2023/04/25 04:23:27;;;;;;;9.40;9.20;;;19.00;58.50;;;;;;5112710;28;21056;-68
2023/04/25 04:25:54;;;;;;;9.73;9.53;;;19.00;58.40;;;;;;5109272;28;20511;-68
2023/04/25 04:28:21;;;;;;;9.87;9.40;;;19.00;58.40;;;;;;5091983;28;20442;-68
2023/04/25 04:30:51;;;;;;;9.37;9.17;;;19.00;58.50;;;;;;5092140;28;20481;-68
2023/04/25 04:33:18;;;;;;;10.00;9.60;;;19.00;58.40;;;;;;5092120;28;20466;-68
2023/04/25 04:35:48;;;;;;;9.93;9.73;;;19.00;59.00;;;;;;5092777;28;21014;-68
2023/04/25 04:38:15;;;;;;;9.50;9.30;;;19.00;58.50;;;;;;5112251;28;20434;-68
2023/04/25 04:40:42;;;;;;;9.00;8.80;;;19.00;58.50;;;;;;5112432;28;20442;-68
2023/04/25 04:43:10;;;;;;;9.57;9.37;;;19.00;58.50;;;;;;5112225;28;20492;-68
2023/04/25 04:45:37;;;;;;;10.00;9.60;;;19.00;58.50;;;;;;5110542;28;20437;-68
2023/04/25 04:48:06;;;;;;;8.93;8.53;;;19.00;58.70;;;;;;5112097;28;20477;-68
2023/04/25 04:50:33;;;;;;;11.73;10.97;;;19.00;60.70;;;;;;5112063;28;20560;-68
2023/04/25 04:53:02;;;;;;;12.37;11.40;;;19.10;64.10;;;;;;5112106;28;20508;-68
2023/04/25 04:55:29;;;;;;;12.90;11.80;;;19.10;68.10;;;;;;5103211;28;20477;-69
2023/04/25 04:57:56;;;;;;;13.43;12.00;;;19.10;71.10;;;;;;5112044;28;21061;-67
2023/04/25 05:00:23;;;;;;;12.10;11.00;;;19.10;72.20;;;;;;5112209;28;20480;-67
2023/04/25 05:02:50;;;;;;;12.03;11.03;;;19.10;72.10;;;;;;5112072;28;20501;-67
2023/04/25 05:05:18;;;;;;;13.20;10.80;;;19.10;72.30;;;;;;5111934;28;20988;-67
2023/04/25 05:07:45;;;;;;;12.77;11.70;;;19.10;72.40;;;;;;5111865;28;20873;-67
2023/04/25 05:10:12;;;;;;;14.13;11.27;;;19.10;73.20;;;;;;5112016;28;20467;-67
2023/04/25 05:12:39;;;;;;;12.33;10.73;;;19.10;72.70;;;;;;5111865;28;20497;-67
2023/04/25 05:15:07;;;;;;;13.43;12.10;;;19.10;72.10;;;;;;5112044;28;20477;-67
2023/04/25 05:17:34;;;;;;;11.87;11.07;;;19.10;71.80;;;;;;5111773;28;20492;-68
2023/04/25 05:20:01;;;;;;;12.70;11.63;;;19.00;71.50;;;;;;5111886;28;20960;-67
2023/04/25 05:22:29;;;;;;;12.37;11.50;;;19.10;70.70;;;;;;5111884;28;20889;-67
2023/04/25 05:24:56;;;;;;;13.37;12.60;;;19.10;70.40;;;;;;5111890;28;20484;-67
2023/04/25 05:27:23;;;;;;;11.63;11.03;;;19.00;70.00;;;;;;5112769;28;20484;-67
2023/04/25 05:29:50;;;;;;;12.60;11.73;;;19.00;69.80;;;;;;5116011;28;20533;-67
2023/04/25 05:32:17;;;;;;;13.20;12.10;;;19.00;69.40;;;;;;5116007;28;20916;-67
2023/04/25 05:34:44;;;;;;;12.20;11.17;;;19.00;69.00;;;;;;5115826;28;20442;-67
2023/04/25 05:37:11;;;;;;;11.60;10.90;;;19.00;68.60;;;;;;5115785;28;20484;-67
2023/04/25 05:39:39;;;;;;;11.70;11.07;;;19.00;68.60;;;;;;5115804;28;20527;-67
2023/04/25 05:42:06;;;;;;;11.30;10.80;;;19.00;68.20;;;;;;5115794;28;20964;-68
2023/04/25 05:44:33;;;;;;;11.80;11.03;;;19.00;67.90;;;;;;5116181;28;20559;-67
2023/04/25 05:47:00;;;;;;;11.50;10.80;;;19.00;67.60;;;;;;5115561;28;20473;-67
2023/04/25 05:49:27;;;;;;;11.40;10.90;;;19.00;67.30;;;;;;5115628;28;20477;-68
2023/04/25 05:51:54;;;;;;;12.77;11.63;;;19.00;67.00;;;;;;5115565;28;20523;-68
2023/04/25 05:54:21;;;;;;;12.30;11.60;;;19.00;66.70;;;;;;5115700;28;20522;-68
2023/04/25 05:56:49;;;;;;;11.40;10.80;;;19.00;66.50;;;;;;5115347;28;20496;-68
2023/04/25 05:59:16;;;;;;;11.40;11.03;;;19.00;66.20;;;;;;5115379;28;20449;-67
2023/04/25 06:01:43;;;;;;;12.10;11.43;;;19.00;66.10;;;;;;5115509;28;20472;-68
2023/04/25 06:04:10;;;;;;;11.10;10.60;;;19.00;65.80;;;;;;5115350;28;20504;-68
2023/04/25 06:06:37;;;;;;;11.27;10.80;;;19.00;65.60;;;;;;5115145;28;20484;-68
2023/04/25 06:09:04;;;;;;;12.90;11.83;;;19.00;65.40;;;;;;5115212;28;20488;-68
2023/04/25 06:11:30;;;;;;;10.83;10.53;;;18.90;65.10;;;;;;5115176;28;20531;-68
2023/04/25 06:13:59;;;;;;;10.50;10.20;;;18.90;65.10;;;;;;5115099;28;20489;-68
2023/04/25 06:16:26;;;;;;;10.33;10.00;;;18.90;64.80;;;;;;5115179;28;20984;-67
2023/04/25 06:18:53;;;;;;;11.37;10.80;;;18.90;64.70;;;;;;5114803;28;20445;-67
2023/04/25 06:21:20;;;;;;;10.53;10.13;;;18.90;64.50;;;;;;5115078;28;20448;-68
2023/04/25 06:23:47;;;;;;;9.73;9.43;;;18.90;64.30;;;;;;5115727;28;20496;-67
2023/04/25 06:26:14;;;;;;;11.20;10.63;;;18.90;64.20;;;;;;5116063;28;20473;-68
2023/04/25 06:28:41;;;;;;;11.40;10.70;;;18.90;64.00;;;;;;5115012;28;20548;-67
2023/04/25 06:31:09;;;;;;;10.47;9.97;;;18.90;63.90;;;;;;5114796;28;20478;-68
2023/04/25 06:33:36;;;;;;;10.97;10.30;;;18.90;63.80;;;;;;5114695;28;20476;-68
2023/04/25 06:36:03;;;;;;;9.90;9.50;;;18.90;63.60;;;;;;5114760;28;20533;-67
2023/04/25 06:38:30;;;;;;;10.10;9.60;;;18.90;63.50;;;;;;5114177;28;20473;-68
2023/04/25 06:40:57;;;;;;;11.23;10.73;;;18.90;63.30;;;;;;5114226;28;20448;-67
2023/04/25 06:43:24;;;;;;;11.00;10.50;;;18.90;63.20;;;;;;5114486;28;20532;-68
2023/04/25 06:45:51;;;;;;;11.23;10.60;;;18.90;62.90;;;;;;5114595;28;20932;-68
2023/04/25 06:48:20;;;;;;;11.00;10.50;;;18.90;62.80;;;;;;5114370;28;20484;-67
2023/04/25 06:50:47;;;;;;;10.97;10.47;;;18.90;62.80;;;;;;5114460;28;20488;-68
2023/04/25 06:53:13;;;;;;;10.63;10.23;;;18.90;62.70;;;;;;5114311;28;20504;-67
2023/04/25 06:55:40;;;;;;;10.40;10.00;;;18.90;62.60;;;;;;5114399;28;20480;-69
2023/04/25 06:58:08;;;;;;;10.90;10.43;;;18.90;62.40;;;;;;5114141;28;20993;-68
2023/04/25 07:00:34;;;;;;;11.57;11.17;;;18.90;62.30;;;;;;5114431;28;20442;-68
2023/04/25 07:03:01;;;;;;;10.30;10.00;;;18.90;62.30;;;;;;5114070;28;20487;-68
2023/04/25 07:05:30;;;;;;;10.93;10.53;;;18.90;62.10;;;;;;5114172;28;20454;-67
2023/04/25 07:07:57;;;;;;;10.90;10.50;;;18.90;62.70;;;;;;5113981;28;20525;-67
2023/04/25 07:10:24;;;;;;;12.20;11.70;;;18.80;61.80;;;;;;5114170;28;20472;-68
2023/04/25 07:12:51;;;;;;;11.87;11.30;;;18.90;61.80;;;;;;5114030;28;20509;-67
2023/04/25 07:15:18;;;;;;;12.17;11.17;;;18.90;61.70;;;;;;5114013;28;20545;-66
2023/04/25 07:17:46;;;;;;;10.83;10.43;;;18.80;61.50;;;;;;5113694;28;20488;-67
2023/04/25 07:20:13;;;;;;;12.23;11.43;;;18.80;61.50;;;;;;5113959;28;20453;-67
2023/04/25 07:22:41;;;;;;;10.90;10.50;;;18.80;61.40;;;;;;5113752;28;20493;-68
2023/04/25 07:25:09;;;;;;;12.07;11.07;;;18.90;61.30;;;;;;5113915;28;20876;-67
2023/04/25 07:27:36;;;;;;;10.70;10.40;;;18.80;61.10;;;;;;5113655;28;20874;-67
2023/04/25 07:30:04;;;;;;;10.40;9.90;;;18.90;61.30;;;;;;5113718;28;20484;-66
2023/04/25 07:32:31;;;;;;;10.27;9.97;;;18.80;61.10;;;;;;5113479;28;20493;-66
2023/04/25 07:34:58;;;;;;;10.60;10.10;;;18.80;61.00;;;;;;5113637;28;20471;-68
2023/04/25 07:37:25;;;;;;;10.77;10.47;;;18.80;60.90;;;;;;5113438;28;20925;-66
2023/04/25 07:39:53;;;;;;;10.80;10.50;;;18.80;60.90;;;;;;5113591;28;20452;-67
2023/04/25 07:42:21;;;;;;;10.60;10.30;;;18.80;60.90;;;;;;5113404;28;20465;-67
2023/04/25 07:44:47;;;;;;;10.80;10.40;;;18.80;60.90;;;;;;5113578;28;20502;-66
2023/04/25 07:47:14;;;;;;;10.47;10.17;;;18.80;60.70;;;;;;5113216;28;20473;-67
2023/04/25 07:49:41;;;;;;;10.23;10.03;;;18.80;60.60;;;;;;5113506;28;20449;-67
2023/04/25 07:52:08;;;;;;;10.70;10.40;;;18.80;60.40;;;;;;5113228;28;20822;-67
2023/04/25 07:54:35;;;;;;;10.13;9.53;;;18.80;60.30;;;;;;5113174;28;20991;-66
2023/04/25 07:57:06;;;;;;;10.10;9.80;;;18.80;60.30;;;;;;5113067;28;20477;-67
2023/04/25 07:59:33;;;;;;;10.23;9.83;;;18.80;60.20;;;;;;5113144;28;20445;-67
2023/04/25 08:02:00;;;;;;;9.97;9.67;;;18.80;60.20;;;;;;5113051;28;20524;-67
2023/04/25 08:04:26;;;;;;;10.90;10.27;;;18.80;60.20;;;;;;5113251;28;20513;-67
2023/04/25 08:06:54;;;;;;;9.30;9.10;;;18.80;60.20;;;;;;5113644;28;20477;-65
2023/04/25 08:09:20;;;;;;;9.60;9.40;;;18.80;60.00;;;;;;5113777;28;20441;-67
2023/04/25 08:11:48;;;;;;;9.93;9.63;;;18.80;60.00;;;;;;5112961;28;20572;-67
2023/04/25 08:14:16;;;;;;;9.17;8.97;;;18.80;59.90;;;;;;5112836;28;20500;-67
2023/04/25 08:16:43;;;;;;;9.93;9.63;;;18.80;59.90;;;;;;5112593;28;20484;-67
2023/04/25 08:19:11;;;;;;;9.10;8.90;;;18.80;59.80;;;;;;5112823;28;20536;-66
2023/04/25 08:21:38;;;;;;;9.70;9.50;;;18.80;59.80;;;;;;5112677;28;20450;-66
2023/04/25 08:24:05;;;;;;;10.00;9.70;;;18.80;59.80;;;;;;5112660;28;20500;-67
2023/04/25 08:26:32;;;;;;;9.50;9.30;;;18.80;59.70;;;;;;5112676;28;20473;-66
2023/04/25 08:28:59;;;;;;;10.50;10.00;;;18.80;59.70;;;;;;5112513;27;20951;-67
2023/04/25 08:31:27;;;;;;;10.57;10.20;;;18.80;59.60;;;;;;5112589;28;20535;-67
2023/04/25 08:33:54;;;;;;;10.50;10.20;;;18.80;59.50;;;;;;5112512;28;20553;-67
2023/04/25 08:36:21;;;;;;;10.30;9.83;;;18.80;59.50;;;;;;5112525;28;20532;-67
2023/04/25 08:38:48;;;;;;;10.00;9.70;;;18.70;59.40;;;;;;5112330;28;20480;-66
2023/04/25 08:41:15;;;;;;;10.97;10.67;;;18.80;59.50;;;;;;5112556;28;20529;-67
2023/04/25 08:43:44;;;;;;;9.73;9.50;;;18.80;59.40;;;;;;5112206;28;20911;-67
2023/04/25 08:46:13;;;;;;;10.20;9.80;;;18.80;59.40;;;;;;5112261;28;20445;-66
2023/04/25 08:48:43;;;;;;;10.70;10.30;;;18.80;59.30;;;;;;5112233;28;20770;-67
2023/04/25 08:51:14;;;;;;;10.00;9.70;;;18.80;59.30;;;;;;5112175;28;20488;-67
2023/04/25 08:53:43;;;;;;;10.60;10.30;;;18.80;59.20;;;;;;5112128;28;20546;-67
2023/04/25 08:56:13;;;;;;;10.77;10.37;;;18.80;59.10;;;;;;5112326;28;20446;-68
2023/04/25 08:58:40;;;;;;;9.53;9.33;;;18.70;59.00;;;;;;5111943;28;20993;-67
2023/04/25 09:01:06;;;;;;;10.20;9.83;;;18.80;59.10;;;;;;5112091;28;20445;-67
2023/04/25 09:03:34;;;;;;;9.93;9.73;;;18.70;59.10;;;;;;5111666;28;21035;-67
2023/04/25 09:06:02;;;;;;;10.60;10.30;;;18.70;59.00;;;;;;5112208;28;20528;-67
2023/04/25 09:08:29;;;;;;;10.40;10.10;;;18.70;59.10;;;;;;5111865;28;20473;-67
2023/04/25 09:10:57;;;;;;;9.80;9.53;;;18.70;59.10;;;;;;5111960;28;20821;-68
2023/04/25 09:13:27;;;;;;;10.20;9.90;;;18.70;59.00;;;;;;5111759;28;20481;-67
2023/04/25 09:15:55;;;;;;;10.77;10.37;;;18.70;59.00;;;;;;5111992;28;20449;-67
2023/04/25 09:18:26;;;;;;;10.40;10.10;;;18.70;58.90;;;;;;5111828;28;20879;-67
2023/04/25 09:20:54;;;;;;;10.10;9.80;;;18.70;58.90;;;;;;5111883;28;20451;-67
2023/04/25 09:23:23;;;;;;;10.03;9.83;;;18.70;58.80;;;;;;5111810;28;20468;-68
2023/04/25 09:25:51;;;;;;;10.60;10.20;;;18.70;58.80;;;;;;5111972;28;20875;-67
2023/04/25 09:28:24;;;;;;;9.70;9.40;;;18.70;58.80;;;;;;5111567;28;20528;-67
2023/04/25 09:30:56;;;;;;;9.70;9.50;;;18.70;58.80;;;;;;5112130;28;20468;-68
2023/04/25 09:33:28;;;;;;;11.00;10.70;;;18.70;58.80;;;;;;5111813;28;20852;-69
2023/04/25 09:36:02;;;;;;;10.77;10.47;;;18.70;58.70;;;;;;5111845;28;20479;-68
2023/04/25 09:38:31;;;;;;;10.27;10.07;;;18.70;58.60;;;;;;5111604;28;20469;-68
2023/04/25 09:40:58;;;;;;;11.63;11.23;;;18.70;58.60;;;;;;5111785;28;20469;-68
2023/04/25 09:43:26;;;;;;;10.83;10.53;;;18.70;58.50;;;;;;5111445;28;20834;-68
2023/04/25 09:45:57;;;;;;;10.80;10.50;;;18.70;58.50;;;;;;5113405;28;20449;-67
2023/04/25 09:48:26;;;;;;;11.10;10.80;;;18.70;58.50;;;;;;5112381;28;20454;-68
2023/04/25 09:51:06;;;;;;;10.63;10.43;;;18.70;58.50;;;;;;5111785;28;20488;-68
2023/04/25 09:53:35;;;;;;;10.70;10.40;;;18.70;58.50;;;;;;5111654;28;20485;-68
2023/04/25 09:56:06;;;;;;;10.40;10.10;;;18.70;58.50;;;;;;5111707;28;20456;-68
2023/04/25 09:58:34;;;;;;;10.60;10.30;;;18.70;58.50;;;;;;5111359;28;20502;-68
2023/04/25 10:01:02;;;;;;;10.70;10.40;;;18.70;58.50;;;;;;5111547;28;20476;-67
2023/04/25 10:03:31;;;;;;;11.37;11.07;;;18.70;58.50;;;;;;5111527;28;20536;-68
2023/04/25 10:06:00;;;;;;;10.53;10.23;;;18.70;58.40;;;;;;5111591;28;20532;-68
2023/04/25 10:08:32;;;;;;;10.83;10.63;;;18.70;58.30;;;;;;5111228;28;20495;-68
2023/04/25 10:11:03;;;;;;;11.03;10.73;;;18.70;58.30;;;;;;5111442;28;20442;-67
2023/04/25 10:13:31;;;;;;;11.00;10.60;;;18.70;58.30;;;;;;5111387;28;20488;-68
2023/04/25 10:16:00;;;;;;;10.60;10.40;;;18.70;58.20;;;;;;5114840;28;20531;-68
2023/04/25 10:18:27;;;;;;;11.03;10.70;;;18.70;58.30;;;;;;5114856;28;20457;-67
2023/04/25 10:20:56;;;;;;;10.10;9.90;;;18.70;58.20;;;;;;5115268;28;20448;-68
2023/04/25 10:23:23;;;;;;;10.47;10.27;;;18.70;58.20;;;;;;5114947;28;20469;-67
2023/04/25 10:25:51;;;;;;;10.53;10.23;;;18.70;58.20;;;;;;5115165;28;20873;-67
2023/04/25 10:28:20;;;;;;;10.90;10.60;;;18.70;58.20;;;;;;5114681;28;20933;-68
2023/04/25 10:31:00;;;;;;;10.37;10.07;;;18.70;58.20;;;;;;5114860;28;20492;-68
2023/04/25 10:33:38;;;;;;;10.70;10.40;;;18.70;58.20;;;;;;5114643;28;20480;-67
2023/04/25 10:36:12;;;;;;;11.00;10.70;;;18.70;58.20;;;;;;5114789;28;20440;-68
2023/04/25 10:38:40;;;;;;;10.33;10.03;;;18.70;58.20;;;;;;5114490;28;20491;-66
2023/04/25 10:41:09;;;;;;;10.90;10.60;;;18.70;58.30;;;;;;5114658;28;20469;-68
2023/04/25 10:43:42;;;;;;;10.30;10.00;;;18.70;58.30;;;;;;5114448;28;20469;-67
2023/04/25 10:46:19;;;;;;;9.43;9.23;;;18.70;58.30;;;;;;5114830;28;20469;-68
2023/04/25 10:48:50;;;;;;;9.90;9.70;;;18.70;58.20;;;;;;5114444;28;20469;-68
2023/04/25 10:51:23;;;;;;;9.70;9.50;;;18.70;58.20;;;;;;5114455;28;20536;-67
2023/04/25 10:54:00;;;;;;;9.90;9.70;;;18.70;58.20;;;;;;5114382;28;20539;-67
2023/04/25 10:56:29;;;;;;;10.10;9.77;;;18.70;58.10;;;;;;5114402;28;20472;-67
2023/04/25 10:59:11;;;;;;;10.00;9.80;;;18.70;58.10;;;;;;5114171;28;20964;-68
2023/04/25 11:01:40;;;;;;;10.60;10.30;;;18.70;58.10;;;;;;5114333;28;20488;-67
2023/04/25 11:04:19;;;;;;;9.90;9.50;;;18.70;58.10;;;;;;5114341;28;20863;-67
2023/04/25 11:07:05;;;;;;;9.90;9.70;;;18.70;58.00;;;;;;5114087;28;20476;-68
2023/04/25 11:09:34;;;;;;;10.70;10.47;;;18.70;58.10;;;;;;5114181;28;20524;-67
2023/04/25 11:12:01;;;;;;;10.33;10.03;;;18.70;58.00;;;;;;5113942;28;20989;-68
2023/04/25 11:14:29;;;;;;;10.83;10.53;;;18.70;57.90;;;;;;5114075;28;21007;-68
2023/04/25 11:16:57;;;;;;;10.80;10.50;;;18.70;58.00;;;;;;5114138;28;20873;-67
2023/04/25 11:19:25;;;;;;;11.00;10.70;;;18.70;58.00;;;;;;5114004;28;20520;-68
2023/04/25 11:21:55;;;;;;;10.30;10.10;;;18.70;58.00;;;;;;5114098;28;20481;-68
2023/04/25 11:24:27;;;;;;;10.73;10.53;;;18.70;57.90;;;;;;5115659;28;20504;-67
2023/04/25 11:26:54;;;;;;;10.30;10.10;;;18.70;57.90;;;;;;5115119;28;20473;-67
2023/04/25 11:29:23;;;;;;;10.00;9.70;;;18.70;57.90;;;;;;5114091;28;20446;-68
2023/04/25 11:31:51;;;;;;;10.20;10.00;;;18.70;57.90;;;;;;5113986;28;20485;-68
2023/04/25 11:34:18;;;;;;;9.50;9.30;;;18.70;57.90;;;;;;5113831;28;20520;-68
2023/04/25 11:36:46;;;;;;;9.70;9.50;;;18.70;57.90;;;;;;5113787;28;20453;-68
2023/04/25 11:39:13;;;;;;;10.50;10.30;;;18.70;57.90;;;;;;5113669;28;20532;-67
2023/04/25 11:41:40;;;;;;;10.70;10.40;;;18.70;57.80;;;;;;5113838;28;20526;-68
2023/04/25 11:44:07;;;;;;;10.03;9.73;;;18.70;57.80;;;;;;5114128;28;20497;-69
2023/04/25 11:46:35;;;;;;;9.70;9.50;;;18.70;57.70;;;;;;5114077;28;20477;-67
2023/04/25 11:49:04;;;;;;;10.80;10.50;;;18.70;57.60;;;;;;5113386;28;20452;-67
2023/04/25 11:51:31;;;;;;;10.33;10.10;;;18.70;57.60;;;;;;5113500;28;20627;-67
2023/04/25 11:53:58;;;;;;;10.50;10.20;;;18.70;57.70;;;;;;5113198;28;20580;-68
2023/04/25 11:56:25;;;;;;;11.07;10.67;;;18.70;57.60;;;;;;5113112;28;20469;-68
2023/04/25 11:58:55;;;;;;;10.60;10.30;;;18.70;57.60;;;;;;5113085;28;20524;-67
2023/04/25 12:01:33;;;;;;;10.30;10.10;;;18.70;57.60;;;;;;5113159;28;20477;-67
2023/04/25 12:04:13;;;;;;;10.60;10.40;;;18.70;57.50;;;;;;5113051;28;20502;-67
2023/04/25 12:06:40;;;;;;;9.70;9.50;;;18.70;57.60;;;;;;5113041;28;20448;-67
2023/04/25 12:09:10;;;;;;;10.00;9.80;;;18.70;57.50;;;;;;5113019;28;20819;-67
2023/04/25 12:11:42;;;;;;;10.30;10.00;;;18.70;57.50;;;;;;5112893;28;20441;-68
2023/04/25 12:14:09;;;;;;;9.87;9.57;;;18.70;57.50;;;;;;5112928;28;20485;-67
2023/04/25 12:16:43;;;;;;;10.70;10.50;;;18.70;57.50;;;;;;5112685;28;20949;-67
2023/04/25 12:19:11;;;;;;;10.57;10.27;;;18.70;57.40;;;;;;5112833;28;20448;-67
2023/04/25 12:21:39;;;;;;;9.87;9.67;;;18.70;57.30;;;;;;5112782;28;20450;-68
2023/04/25 12:24:14;;;;;;;10.77;10.47;;;18.70;57.30;;;;;;5112673;28;20489;-67
2023/04/25 12:26:52;;;;;;;9.77;9.57;;;18.80;57.30;;;;;;5112543;28;20488;-67
2023/04/25 12:29:21;;;;;;;10.80;10.50;;;18.80;57.30;;;;;;5112591;28;20449;-67
2023/04/25 12:31:48;;;;;;;11.40;10.93;;;18.70;57.30;;;;;;5112523;28;20790;-67
2023/04/25 12:34:15;;;;;;;10.27;10.07;;;18.80;57.30;;;;;;5112422;28;20512;-67
2023/04/25 12:36:43;;;;;;;10.40;10.20;;;18.80;57.30;;;;;;5111893;28;20441;-67
2023/04/25 12:39:15;;;;;;;10.20;9.90;;;18.80;57.30;;;;;;5112372;28;20504;-67
2023/04/25 12:41:42;;;;;;;10.10;9.90;;;18.80;57.20;;;;;;5112525;28;20872;-67